Time;durP1;ratioP1;P1;durP2;ratioP2;P2;SDS_P1;SDS_P2;PMS_P1;PMS_P2;Temp;Humidity;BMP_temperature;BMP_pressure;BME280_temperature;BME280_humidity;BME280_pressure;Samples;Min_cycle;Max_cycle;Signal;HPM_P1;HPM_P2
2022/09/04 00:02:16;;;;;;;2.37;2.13;;;22.50;51.60;;;;;;5069230;28;20456;-88
2022/09/04 00:04:51;;;;;;;2.47;2.10;;;22.50;51.80;;;;;;5042697;28;20950;-88
2022/09/04 00:07:26;;;;;;;3.10;2.00;;;22.50;51.70;;;;;;5031466;28;20464;-88
2022/09/04 00:10:10;;;;;;;2.53;2.17;;;22.50;52.30;;;;;;5069284;28;20456;-89
2022/09/04 00:12:45;;;;;;;2.73;2.03;;;22.50;51.70;;;;;;5085945;28;20459;-88
2022/09/04 00:15:18;;;;;;;2.77;2.53;;;22.40;51.80;;;;;;5035899;28;20527;-86
2022/09/04 00:17:52;;;;;;;2.60;2.40;;;22.30;51.90;;;;;;5056818;28;20472;-89
2022/09/04 00:20:29;;;;;;;2.43;2.10;;;22.30;52.00;;;;;;5065421;28;20451;-87
2022/09/04 00:23:02;;;;;;;2.40;2.20;;;22.30;52.00;;;;;;5082276;28;20438;-89
2022/09/04 00:25:36;;;;;;;3.10;2.37;;;22.30;52.00;;;;;;5063265;28;20463;-89
2022/09/04 00:28:08;;;;;;;2.20;2.00;;;22.20;52.00;;;;;;5079987;28;20440;-87
2022/09/04 00:30:40;;;;;;;2.50;2.30;;;22.10;52.40;;;;;;5066953;28;20447;-87
2022/09/04 00:33:13;;;;;;;1.60;1.50;;;22.10;52.10;;;;;;5050263;28;20459;-88
2022/09/04 00:35:46;;;;;;;1.77;1.67;;;22.10;51.80;;;;;;5069215;28;20432;-88
2022/09/04 00:38:18;;;;;;;2.30;2.10;;;22.10;51.60;;;;;;5064645;28;20445;-93
2022/09/04 00:40:56;;;;;;;2.83;2.50;;;22.10;51.80;;;;;;5083364;28;20450;-89
2022/09/04 00:43:56;;;;;;;2.10;1.90;;;22.10;51.80;;;;;;5065403;28;20935;-88
2022/09/04 00:46:46;;;;;;;3.97;2.30;;;22.10;51.80;;;;;;5084258;28;21013;-89
2022/09/04 00:49:44;;;;;;;4.07;2.93;;;22.10;51.80;;;;;;5067319;28;20439;-90
2022/09/04 00:52:25;;;;;;;2.70;2.17;;;22.10;51.90;;;;;;5066644;28;20447;-89
2022/09/04 00:55:07;;;;;;;2.50;2.30;;;21.80;53.10;;;;;;5050335;28;20431;-87
2022/09/04 00:58:03;;;;;;;5.57;2.80;;;21.50;53.90;;;;;;5084161;28;20519;-89
2022/09/04 01:00:30;;;;;;;2.80;2.57;;;21.50;53.00;;;;;;5050924;28;20498;-88
2022/09/04 01:03:18;;;;;;;3.00;2.80;;;21.60;52.50;;;;;;5067274;28;20455;-88
2022/09/04 01:06:03;;;;;;;2.30;2.10;;;21.60;52.90;;;;;;5084633;28;20468;-89
2022/09/04 01:08:46;;;;;;;2.77;2.57;;;21.60;52.80;;;;;;5050767;28;21036;-88
2022/09/04 01:11:17;;;;;;;2.47;2.10;;;21.70;52.70;;;;;;5082256;28;20447;-91
2022/09/04 01:13:58;;;;;;;2.70;2.50;;;21.70;52.80;;;;;;5066522;28;20528;-88
2022/09/04 01:16:32;;;;;;;2.90;2.70;;;21.70;52.30;;;;;;5049869;28;20463;-87
2022/09/04 01:19:08;;;;;;;2.43;2.23;;;21.70;52.80;;;;;;5078074;28;20442;-90
2022/09/04 01:21:56;;;;;;;2.50;2.23;;;21.60;53.10;;;;;;5067632;28;20444;-87
2022/09/04 01:24:41;;;;;;;3.83;2.50;;;21.60;52.70;;;;;;5064822;28;20445;-88
2022/09/04 01:27:18;;;;;;;3.90;2.73;;;21.50;53.20;;;;;;5088451;28;20474;-88
2022/09/04 01:29:56;;;;;;;2.93;2.63;;;21.30;54.30;;;;;;5083782;28;20444;-88
2022/09/04 01:32:32;;;;;;;5.10;2.20;;;21.00;54.30;;;;;;5063861;28;20472;-88
2022/09/04 01:35:07;;;;;;;3.97;2.73;;;21.10;54.20;;;;;;5051951;28;20491;-88
2022/09/04 01:37:47;;;;;;;3.20;2.90;;;21.20;54.00;;;;;;5069374;28;20462;-90
2022/09/04 01:40:47;;;;;;;2.77;2.50;;;21.20;53.30;;;;;;5088569;28;20985;-90
2022/09/04 01:43:19;;;;;;;2.83;2.63;;;21.20;53.10;;;;;;5056514;28;20466;-88
2022/09/04 01:46:07;;;;;;;4.90;2.67;;;21.30;53.30;;;;;;5053385;28;20493;-88
2022/09/04 01:48:42;;;;;;;2.97;2.60;;;21.30;53.80;;;;;;5089300;28;20462;-92
2022/09/04 01:51:19;;;;;;;3.80;2.67;;;21.30;53.10;;;;;;5086537;28;20446;-89
2022/09/04 01:53:59;;;;;;;2.47;2.27;;;21.30;53.10;;;;;;5052743;28;20441;-89
2022/09/04 01:56:34;;;;;;;2.43;2.23;;;21.30;53.10;;;;;;5072339;28;20473;-88
2022/09/04 01:59:09;;;;;;;2.50;2.30;;;21.30;52.90;;;;;;5065861;28;20994;-88
2022/09/04 02:01:42;;;;;;;2.83;2.50;;;21.30;53.10;;;;;;5052830;28;20947;-88
2022/09/04 02:04:17;;;;;;;2.50;2.30;;;21.30;53.00;;;;;;5054210;28;20455;-88
2022/09/04 02:06:56;;;;;;;2.37;2.17;;;21.20;52.90;;;;;;5038256;28;20845;-88
2022/09/04 02:09:34;;;;;;;2.80;2.60;;;21.20;53.20;;;;;;5086854;28;20475;-87
2022/09/04 02:12:11;;;;;;;2.23;2.03;;;21.20;52.70;;;;;;5089902;28;20443;-87
2022/09/04 02:14:46;;;;;;;2.80;2.60;;;21.10;53.20;;;;;;5071183;28;20456;-87
2022/09/04 02:17:19;;;;;;;2.63;2.43;;;21.20;53.10;;;;;;5055257;28;20470;-88
2022/09/04 02:20:01;;;;;;;2.67;2.47;;;21.10;52.90;;;;;;5039980;28;20443;-88
2022/09/04 02:22:40;;;;;;;3.47;2.70;;;21.00;53.60;;;;;;5070077;28;20449;-89
2022/09/04 02:25:19;;;;;;;3.67;2.23;;;21.10;53.80;;;;;;5072388;28;20520;-88
2022/09/04 02:27:54;;;;;;;3.00;2.17;;;21.10;54.00;;;;;;5048558;28;20497;-88
2022/09/04 02:30:23;;;;;;;4.07;2.77;;;21.10;53.80;;;;;;5061427;28;20469;-88
2022/09/04 02:33:05;;;;;;;4.20;3.00;;;21.00;54.00;;;;;;5087113;28;20542;-88
2022/09/04 02:35:38;;;;;;;3.60;2.80;;;21.00;54.00;;;;;;5053143;28;20540;-88
2022/09/04 02:38:16;;;;;;;3.07;2.80;;;21.00;53.50;;;;;;5069824;28;21275;-88
2022/09/04 02:40:51;;;;;;;2.77;2.57;;;21.00;53.80;;;;;;5052362;28;20493;-88
2022/09/04 02:43:38;;;;;;;4.37;2.97;;;21.00;53.90;;;;;;5050322;28;20530;-88
2022/09/04 02:46:12;;;;;;;3.10;2.90;;;21.00;54.00;;;;;;5043669;28;20544;-88
2022/09/04 02:48:52;;;;;;;3.03;2.83;;;21.00;54.00;;;;;;5044299;28;20467;-90
2022/09/04 02:51:33;;;;;;;3.20;2.80;;;21.00;54.40;;;;;;5054024;28;20942;-88
2022/09/04 02:54:06;;;;;;;4.53;3.20;;;21.00;54.00;;;;;;5075247;28;20447;-89
2022/09/04 02:56:43;;;;;;;3.53;3.20;;;21.00;54.20;;;;;;5066510;28;20485;-90
2022/09/04 02:59:29;;;;;;;3.57;3.10;;;20.90;54.60;;;;;;5077080;28;20443;-88
2022/09/04 03:02:01;;;;;;;5.30;2.37;;;20.90;54.10;;;;;;5082494;28;20539;-87
2022/09/04 03:04:35;;;;;;;3.10;2.80;;;20.90;53.70;;;;;;5034203;28;20456;-88
2022/09/04 03:07:09;;;;;;;3.07;2.77;;;21.00;54.00;;;;;;5074179;28;20913;-88
2022/09/04 03:09:42;;;;;;;4.40;3.00;;;20.80;54.60;;;;;;5061375;28;20496;-87
2022/09/04 03:12:27;;;;;;;4.10;3.37;;;20.80;54.50;;;;;;5089507;28;20435;-88
2022/09/04 03:15:02;;;;;;;3.23;2.97;;;20.70;54.60;;;;;;5050192;28;20509;-89
2022/09/04 03:17:40;;;;;;;5.50;3.63;;;20.70;54.60;;;;;;5052715;28;20456;-88
2022/09/04 03:20:13;;;;;;;2.93;2.63;;;20.80;54.40;;;;;;5055520;28;20446;-88
2022/09/04 03:22:46;;;;;;;3.67;3.17;;;20.80;54.10;;;;;;5061428;28;20443;-88
2022/09/04 03:25:36;;;;;;;3.80;3.37;;;20.90;53.90;;;;;;5062606;28;20448;-88
2022/09/04 03:28:04;;;;;;;3.80;2.63;;;20.90;53.40;;;;;;5085812;28;20444;-88
2022/09/04 03:30:36;;;;;;;3.33;2.80;;;20.80;53.30;;;;;;5070393;28;20451;-88
2022/09/04 03:33:11;;;;;;;3.23;2.93;;;20.80;53.50;;;;;;5085241;28;20431;-86
2022/09/04 03:35:48;;;;;;;3.07;2.83;;;20.80;53.80;;;;;;5086188;28;20432;-87
2022/09/04 03:38:22;;;;;;;3.00;2.70;;;20.80;54.30;;;;;;5070586;28;21004;-87
2022/09/04 03:41:01;;;;;;;2.70;2.50;;;20.70;54.20;;;;;;5063179;28;20447;-87
2022/09/04 03:43:47;;;;;;;4.83;3.07;;;20.80;53.90;;;;;;5070377;28;20444;-88
2022/09/04 03:46:26;;;;;;;3.20;2.80;;;20.80;54.00;;;;;;5067617;28;20475;-88
2022/09/04 03:49:09;;;;;;;3.13;2.87;;;20.70;53.90;;;;;;5081603;28;20447;-88
2022/09/04 03:51:45;;;;;;;3.60;2.63;;;20.70;54.00;;;;;;5037218;28;20541;-87
2022/09/04 03:54:27;;;;;;;3.50;2.80;;;20.70;54.20;;;;;;5052327;28;20452;-87
2022/09/04 03:57:03;;;;;;;3.07;2.77;;;20.70;54.00;;;;;;5068328;28;21989;-90
2022/09/04 03:59:51;;;;;;;3.30;3.00;;;20.70;53.90;;;;;;5053912;28;20514;-87
2022/09/04 04:02:27;;;;;;;3.27;2.97;;;20.60;53.90;;;;;;5048716;28;20442;-87
2022/09/04 04:05:28;;;;;;;3.43;3.13;;;20.60;53.80;;;;;;5069897;28;20457;-88
2022/09/04 04:08:10;;;;;;;2.90;2.70;;;20.60;53.80;;;;;;5054695;28;20797;-90
2022/09/04 04:10:47;;;;;;;3.33;3.10;;;20.70;53.80;;;;;;5042657;28;20499;-88
2022/09/04 04:13:36;;;;;;;3.03;2.73;;;20.50;53.60;;;;;;5042643;28;20916;-88
2022/09/04 04:16:18;;;;;;;3.30;3.00;;;20.50;53.50;;;;;;5034991;28;20509;-88
2022/09/04 04:19:00;;;;;;;3.33;3.03;;;20.40;53.60;;;;;;5053105;28;20854;-91
2022/09/04 04:21:54;;;;;;;5.83;3.40;;;20.40;53.50;;;;;;5064084;28;20439;-88
2022/09/04 04:24:37;;;;;;;5.77;2.80;;;20.40;53.60;;;;;;5043097;28;20511;-87
2022/09/04 04:27:21;;;;;;;4.43;3.50;;;20.40;53.70;;;;;;5042567;28;20518;-89
2022/09/04 04:30:06;;;;;;;3.10;2.90;;;20.40;53.70;;;;;;5035637;28;20436;-86
2022/09/04 04:33:01;;;;;;;3.57;3.27;;;20.40;53.70;;;;;;5067940;28;20512;-89
2022/09/04 04:35:35;;;;;;;2.57;2.37;;;20.40;53.70;;;;;;5067871;28;20440;-87
2022/09/04 04:38:16;;;;;;;3.67;3.37;;;20.30;53.60;;;;;;5060524;28;20459;-88
2022/09/04 04:41:03;;;;;;;2.83;2.63;;;20.30;53.70;;;;;;5019994;28;20474;-88
2022/09/04 04:43:37;;;;;;;3.57;3.27;;;20.30;53.70;;;;;;5064582;28;20501;-88
2022/09/04 04:46:12;;;;;;;4.53;3.70;;;20.20;53.00;;;;;;5053467;28;20893;-87
2022/09/04 04:49:04;;;;;;;4.33;3.80;;;20.20;54.10;;;;;;5038840;28;20800;-90
2022/09/04 04:51:52;;;;;;;3.33;3.03;;;20.20;54.30;;;;;;5053951;28;20531;-88
2022/09/04 04:54:45;;;;;;;4.43;3.77;;;20.20;54.30;;;;;;5068027;28;20492;-87
2022/09/04 04:57:20;;;;;;;3.47;3.17;;;20.20;54.20;;;;;;5052919;28;20463;-88
2022/09/04 04:59:54;;;;;;;5.00;4.60;;;20.20;54.20;;;;;;5082239;28;20440;-87
2022/09/04 05:02:28;;;;;;;4.70;4.30;;;20.20;53.90;;;;;;5054054;28;20452;-89
2022/09/04 05:05:02;;;;;;;4.00;3.70;;;20.20;54.20;;;;;;5068025;28;20534;-88
2022/09/04 05:07:36;;;;;;;5.20;3.43;;;20.20;54.10;;;;;;5068766;28;20502;-87
2022/09/04 05:10:17;;;;;;;3.53;3.20;;;20.20;54.00;;;;;;5047950;28;20445;-87
2022/09/04 05:12:55;;;;;;;3.53;2.97;;;20.20;53.90;;;;;;5038060;28;20555;-88
2022/09/04 05:15:28;;;;;;;3.70;3.40;;;20.30;54.00;;;;;;5051930;28;20451;-88
2022/09/04 05:18:03;;;;;;;4.30;3.23;;;20.30;54.00;;;;;;5079752;28;20546;-88
2022/09/04 05:20:41;;;;;;;3.40;3.10;;;20.20;54.00;;;;;;5068589;28;20531;-88
2022/09/04 05:23:20;;;;;;;4.50;3.17;;;20.20;54.00;;;;;;5071701;28;20447;-88
2022/09/04 05:25:54;;;;;;;3.80;3.50;;;20.20;53.90;;;;;;5086706;28;20463;-89
2022/09/04 05:28:30;;;;;;;7.20;3.77;;;20.20;54.10;;;;;;5062801;28;20542;-89
2022/09/04 05:31:07;;;;;;;4.27;3.87;;;20.20;54.10;;;;;;5065706;28;20842;-88
2022/09/04 05:33:39;;;;;;;4.00;3.47;;;20.20;54.20;;;;;;5065809;28;20440;-91
2022/09/04 05:36:13;;;;;;;4.60;4.00;;;20.20;54.20;;;;;;5068076;28;21598;-88
2022/09/04 05:38:49;;;;;;;4.33;3.97;;;20.30;54.50;;;;;;5052351;28;20436;-88
2022/09/04 05:41:33;;;;;;;4.30;3.90;;;20.20;54.50;;;;;;5052979;28;21098;-88
2022/09/04 05:44:14;;;;;;;5.30;3.87;;;20.20;54.60;;;;;;5084853;28;20512;-89
2022/09/04 05:46:52;;;;;;;4.67;4.20;;;20.20;54.70;;;;;;5088339;28;20499;-86
2022/09/04 05:49:31;;;;;;;4.60;4.13;;;20.30;54.90;;;;;;5053271;28;20459;-88
2022/09/04 05:52:24;;;;;;;4.40;4.00;;;20.20;55.00;;;;;;5074999;28;20474;-88
2022/09/04 05:55:22;;;;;;;5.70;4.63;;;20.30;55.00;;;;;;5043138;28;20446;-91
2022/09/04 05:58:11;;;;;;;4.10;3.73;;;20.20;55.50;;;;;;5056419;28;20537;-87
2022/09/04 06:00:50;;;;;;;4.70;4.20;;;20.30;55.70;;;;;;5065429;28;20436;-88
2022/09/04 06:03:40;;;;;;;4.07;3.67;;;20.30;55.50;;;;;;5063391;28;20448;-87
2022/09/04 06:06:14;;;;;;;4.43;4.03;;;20.40;55.30;;;;;;5078703;28;20475;-86
2022/09/04 06:09:11;;;;;;;5.10;4.70;;;20.30;55.20;;;;;;5059433;28;20448;-88
2022/09/04 06:12:00;;;;;;;5.90;4.33;;;20.30;55.10;;;;;;5042207;28;20441;-90
2022/09/04 06:14:56;;;;;;;5.93;4.50;;;20.30;55.00;;;;;;5053510;28;21220;-88
2022/09/04 06:17:35;;;;;;;5.43;4.83;;;20.40;55.60;;;;;;5051833;28;20529;-88
2022/09/04 06:20:33;;;;;;;4.63;4.23;;;20.30;56.20;;;;;;5046952;28;20939;-88
2022/09/04 06:23:34;;;;;;;5.70;4.50;;;20.40;56.30;;;;;;5070354;28;20451;-88
2022/09/04 06:26:35;;;;;;;5.80;4.40;;;20.50;56.10;;;;;;5041095;28;20475;-87
2022/09/04 06:29:14;;;;;;;4.40;4.00;;;20.50;56.00;;;;;;5038130;28;20457;-87
2022/09/04 06:32:07;;;;;;;5.10;4.17;;;20.40;56.60;;;;;;5070034;28;21095;-87
2022/09/04 06:35:05;;;;;;;5.60;5.10;;;20.50;56.20;;;;;;5062004;28;20452;-88
2022/09/04 06:37:41;;;;;;;7.17;5.30;;;20.60;55.90;;;;;;5055356;28;20556;-87
2022/09/04 06:40:23;;;;;;;5.33;4.83;;;20.60;56.00;;;;;;5054275;28;20453;-89
2022/09/04 06:43:02;;;;;;;10.40;4.73;;;20.70;56.10;;;;;;5041002;28;20883;-88
2022/09/04 06:45:43;;;;;;;6.10;4.70;;;20.70;56.00;;;;;;5037928;28;20444;-90
2022/09/04 06:48:21;;;;;;;5.00;4.50;;;20.80;56.20;;;;;;5042800;28;20465;-88
2022/09/04 06:50:55;;;;;;;4.17;3.87;;;20.80;56.20;;;;;;5043650;28;20532;-88
2022/09/04 06:53:37;;;;;;;6.10;4.27;;;20.60;56.30;;;;;;5057155;28;20510;-87
2022/09/04 06:56:15;;;;;;;5.60;5.00;;;20.70;56.60;;;;;;5062868;28;20527;-87
2022/09/04 06:59:03;;;;;;;7.83;4.60;;;20.80;56.30;;;;;;5058689;28;20462;-88
2022/09/04 07:01:41;;;;;;;4.40;3.80;;;21.00;55.80;;;;;;5075538;28;20445;-88
2022/09/04 07:04:21;;;;;;;5.50;5.00;;;21.20;55.40;;;;;;5041110;28;20465;-88
2022/09/04 07:07:02;;;;;;;5.33;4.50;;;21.30;55.40;;;;;;5066356;28;20480;-89
2022/09/04 07:09:32;;;;;;;11.80;5.40;;;21.50;55.20;;;;;;5055934;28;20449;-87
2022/09/04 07:12:19;;;;;;;5.47;4.70;;;21.60;55.10;;;;;;5059238;28;20463;-87
2022/09/04 07:15:14;;;;;;;5.33;4.20;;;21.70;54.90;;;;;;5072227;28;20436;-87
2022/09/04 07:17:55;;;;;;;4.20;3.77;;;21.70;54.60;;;;;;5072526;28;21112;-87
2022/09/04 07:20:30;;;;;;;4.83;4.37;;;21.80;54.50;;;;;;5071206;28;20451;-88
2022/09/04 07:23:22;;;;;;;4.10;3.80;;;21.90;54.50;;;;;;5037055;28;20530;-87
2022/09/04 07:25:59;;;;;;;5.13;3.97;;;21.90;54.30;;;;;;5053443;28;20555;-88
2022/09/04 07:28:41;;;;;;;4.87;3.97;;;21.80;54.60;;;;;;5041423;28;20525;-89
2022/09/04 07:31:13;;;;;;;4.87;3.77;;;21.80;54.70;;;;;;5051534;28;20463;-89
2022/09/04 07:33:51;;;;;;;4.70;4.30;;;21.90;54.60;;;;;;5037843;28;20445;-90
2022/09/04 07:36:31;;;;;;;5.40;3.90;;;22.00;54.50;;;;;;5051049;28;20472;-88
2022/09/04 07:39:04;;;;;;;4.17;3.87;;;22.00;54.40;;;;;;5078507;28;20453;-88
2022/09/04 07:41:40;;;;;;;6.20;4.70;;;22.10;54.40;;;;;;5057411;28;20974;-88
2022/09/04 07:44:14;;;;;;;5.03;3.87;;;22.10;54.30;;;;;;5059375;28;20882;-88
2022/09/04 07:46:49;;;;;;;4.17;3.87;;;22.10;54.10;;;;;;5060345;28;20467;-88
2022/09/04 07:49:21;;;;;;;7.00;4.30;;;22.10;54.20;;;;;;5048406;28;20451;-88
2022/09/04 07:51:55;;;;;;;7.27;4.73;;;22.30;54.10;;;;;;5040793;28;21055;-89
2022/09/04 07:54:37;;;;;;;4.53;4.13;;;22.40;54.20;;;;;;5080437;28;20448;-89
2022/09/04 07:57:39;;;;;;;4.90;4.50;;;22.30;54.10;;;;;;5063297;28;20860;-89
2022/09/04 08:00:09;;;;;;;3.87;3.20;;;22.40;54.10;;;;;;5047654;28;20448;-88
2022/09/04 08:03:16;;;;;;;6.03;3.93;;;22.50;53.70;;;;;;5075984;28;20471;-88
2022/09/04 08:05:51;;;;;;;4.70;4.30;;;22.50;54.70;;;;;;5072849;28;20455;-87
2022/09/04 08:09:02;;;;;;;4.10;3.80;;;22.50;54.30;;;;;;5061559;28;20467;-87
2022/09/04 08:12:04;;;;;;;5.20;4.33;;;22.70;54.20;;;;;;5033456;28;20791;-88
2022/09/04 08:14:51;;;;;;;4.00;3.60;;;22.80;54.00;;;;;;5047025;28;20846;-88
2022/09/04 08:17:42;;;;;;;4.00;3.70;;;22.90;53.80;;;;;;5052789;28;20479;-89
2022/09/04 08:20:26;;;;;;;4.27;3.90;;;23.00;53.90;;;;;;5043668;28;20458;-86
2022/09/04 08:22:58;;;;;;;4.50;4.10;;;23.10;53.90;;;;;;5035524;28;20436;-89
2022/09/04 08:25:29;;;;;;;4.37;3.97;;;23.00;54.00;;;;;;5050216;28;20733;-88
2022/09/04 08:28:16;;;;;;;4.50;4.10;;;23.10;54.20;;;;;;5052852;28;21171;-88
2022/09/04 08:30:53;;;;;;;5.60;4.40;;;23.20;54.10;;;;;;5037894;28;20461;-88
2022/09/04 08:33:46;;;;;;;4.13;3.50;;;23.40;54.00;;;;;;5065753;28;20439;-88
2022/09/04 08:36:25;;;;;;;4.73;4.33;;;23.50;53.80;;;;;;5056313;28;20467;-89
2022/09/04 08:39:03;;;;;;;5.20;4.53;;;23.60;53.70;;;;;;5045690;28;20448;-89
2022/09/04 08:42:04;;;;;;;4.10;3.80;;;23.70;53.80;;;;;;5025656;28;20460;-86
2022/09/04 08:45:12;;;;;;;3.60;3.30;;;23.70;53.90;;;;;;5044853;28;20444;-90
2022/09/04 08:48:03;;;;;;;4.13;3.60;;;23.70;53.70;;;;;;5057548;28;20476;-88
2022/09/04 08:50:57;;;;;;;3.97;3.67;;;23.80;53.80;;;;;;5054394;28;20440;-89
2022/09/04 08:54:02;;;;;;;3.60;3.30;;;23.80;54.00;;;;;;5059013;28;20440;-88
2022/09/04 08:56:37;;;;;;;3.50;3.20;;;24.00;53.60;;;;;;5072017;28;20491;-89
2022/09/04 08:59:40;;;;;;;4.30;4.00;;;24.10;53.60;;;;;;5043553;28;20459;-90
2022/09/04 09:02:48;;;;;;;4.37;3.23;;;24.30;53.80;;;;;;5050285;28;20463;-87
2022/09/04 09:05:32;;;;;;;3.60;3.30;;;24.40;53.50;;;;;;5042802;28;20543;-88
2022/09/04 09:08:24;;;;;;;3.80;3.37;;;24.40;53.30;;;;;;5053492;28;20481;-88
2022/09/04 09:11:13;;;;;;;4.17;3.70;;;24.50;53.70;;;;;;5047302;28;20459;-89
2022/09/04 09:14:05;;;;;;;3.73;3.43;;;24.60;53.30;;;;;;5057600;28;20463;-87
2022/09/04 09:16:43;;;;;;;3.60;3.30;;;24.70;53.30;;;;;;5046626;28;20621;-89
2022/09/04 09:19:25;;;;;;;5.53;3.20;;;25.00;53.10;;;;;;5079376;28;20723;-88
2022/09/04 09:22:10;;;;;;;3.40;3.10;;;25.20;52.50;;;;;;5055479;28;20449;-88
2022/09/04 09:25:08;;;;;;;3.03;2.83;;;25.30;52.30;;;;;;5055440;28;20459;-88
2022/09/04 09:28:11;;;;;;;5.20;3.37;;;25.30;52.50;;;;;;5056254;28;21378;-88
2022/09/04 09:31:01;;;;;;;3.93;2.97;;;25.30;52.00;;;;;;5050127;28;21015;-88
2022/09/04 09:34:00;;;;;;;3.10;2.80;;;25.40;52.30;;;;;;5048727;28;20448;-88
2022/09/04 09:36:46;;;;;;;3.83;3.03;;;25.70;52.10;;;;;;5054529;28;20476;-88
2022/09/04 09:39:53;;;;;;;3.10;2.90;;;26.00;51.60;;;;;;5072006;28;20472;-88
2022/09/04 09:43:02;;;;;;;3.63;3.20;;;26.30;50.20;;;;;;5076295;28;20451;-88
2022/09/04 09:45:59;;;;;;;4.10;3.00;;;26.70;50.10;;;;;;5057547;28;20840;-89
2022/09/04 09:48:54;;;;;;;3.27;2.97;;;26.80;49.10;;;;;;5060306;28;20472;-88
2022/09/04 09:51:58;;;;;;;4.80;2.40;;;26.80;49.70;;;;;;5028043;28;20447;-87
2022/09/04 09:54:58;;;;;;;3.53;2.70;;;27.00;48.70;;;;;;5057019;28;20460;-88
2022/09/04 09:58:10;;;;;;;2.50;2.30;;;27.00;48.60;;;;;;5049006;28;20467;-86
2022/09/04 10:00:45;;;;;;;2.30;2.10;;;26.90;48.70;;;;;;5075956;28;20816;-88
2022/09/04 10:04:05;;;;;;;2.40;2.20;;;27.00;48.50;;;;;;5069521;28;20474;-89
2022/09/04 10:07:14;;;;;;;2.40;2.20;;;27.20;47.80;;;;;;5063071;28;20464;-87
2022/09/04 10:10:00;;;;;;;3.27;2.50;;;27.60;47.60;;;;;;5050881;28;20478;-87
2022/09/04 10:12:59;;;;;;;2.70;2.50;;;27.90;47.00;;;;;;5073736;28;20487;-88
2022/09/04 10:15:55;;;;;;;2.23;2.00;;;28.20;46.30;;;;;;5054659;28;20539;-86
2022/09/04 10:18:56;;;;;;;2.20;2.10;;;28.30;45.20;;;;;;5051996;28;20451;-87
2022/09/04 10:22:07;;;;;;;1.83;1.73;;;27.90;45.60;;;;;;5015852;28;20997;-87
2022/09/04 10:25:01;;;;;;;2.50;2.30;;;27.90;46.10;;;;;;5004316;28;20561;-89
2022/09/04 10:28:10;;;;;;;2.30;2.10;;;28.00;45.70;;;;;;5027332;28;20481;-87
2022/09/04 10:30:58;;;;;;;3.40;2.20;;;28.40;45.00;;;;;;5044850;28;20453;-87
2022/09/04 10:33:37;;;;;;;2.40;2.20;;;28.70;44.70;;;;;;5056066;28;20471;-87
2022/09/04 10:36:24;;;;;;;2.50;1.90;;;28.90;43.30;;;;;;5053934;28;20460;-89
2022/09/04 10:42:10;;;;;;;2.20;2.10;;;28.70;42.90;;;;;;5031811;28;20756;-88
2022/09/04 10:44:50;;;;;;;2.87;2.40;;;28.80;43.80;;;;;;5053200;28;21160;-88
2022/09/04 10:47:51;;;;;;;2.10;1.90;;;29.00;43.50;;;;;;5053586;28;21014;-88
2022/09/04 10:50:31;;;;;;;2.60;2.00;;;29.10;42.50;;;;;;5026530;28;20445;-88
2022/09/04 10:53:35;;;;;;;2.67;2.17;;;29.50;43.30;;;;;;5054895;28;20464;-88
2022/09/04 10:56:20;;;;;;;2.17;1.50;;;30.00;41.70;;;;;;5046324;28;20466;-89
2022/09/04 10:59:08;;;;;;;1.90;1.80;;;30.30;39.80;;;;;;5067641;28;20536;-87
2022/09/04 11:02:14;;;;;;;2.03;1.83;;;30.70;39.00;;;;;;5040277;28;20542;-88
2022/09/04 11:05:08;;;;;;;2.40;2.20;;;30.60;38.50;;;;;;5063894;28;20971;-88
2022/09/04 11:08:11;;;;;;;1.90;1.77;;;30.60;38.80;;;;;;5069360;28;20493;-88
2022/09/04 11:10:58;;;;;;;2.30;1.50;;;30.40;39.50;;;;;;5035937;28;20445;-88
2022/09/04 11:14:02;;;;;;;3.57;1.80;;;30.40;39.00;;;;;;5054853;28;20452;-88
2022/09/04 11:16:50;;;;;;;2.10;2.00;;;30.30;38.80;;;;;;5034643;28;20933;-88
2022/09/04 11:19:50;;;;;;;2.10;1.90;;;30.60;38.20;;;;;;5050557;28;20927;-88
2022/09/04 11:22:47;;;;;;;2.80;2.20;;;31.00;38.10;;;;;;5070796;28;20964;-89
2022/09/04 11:25:53;;;;;;;1.77;1.67;;;31.40;38.50;;;;;;5036774;28;20464;-87
2022/09/04 11:28:50;;;;;;;1.90;1.70;;;31.50;36.60;;;;;;5023162;28;20488;-88
2022/09/04 11:31:34;;;;;;;1.90;1.80;;;30.70;37.20;;;;;;5071354;28;20507;-88
2022/09/04 11:34:31;;;;;;;1.87;1.77;;;30.20;38.60;;;;;;5069008;28;20436;-87
2022/09/04 11:37:55;;;;;;;3.70;1.87;;;30.10;39.50;;;;;;5071308;28;20483;-88
2022/09/04 11:40:54;;;;;;;2.20;2.00;;;30.00;39.40;;;;;;5069437;28;20475;-88
2022/09/04 11:43:36;;;;;;;2.27;1.77;;;29.90;39.80;;;;;;5072447;28;20546;-87
2022/09/04 11:46:33;;;;;;;2.30;2.10;;;30.00;40.60;;;;;;5047344;28;20539;-88
2022/09/04 11:49:20;;;;;;;2.30;1.93;;;30.00;39.30;;;;;;5047850;28;20475;-87
2022/09/04 11:52:14;;;;;;;2.50;1.83;;;29.90;39.90;;;;;;5047007;28;20447;-88
2022/09/04 11:55:25;;;;;;;3.30;2.00;;;29.80;40.30;;;;;;5039023;28;21210;-87
2022/09/04 11:58:13;;;;;;;2.13;1.83;;;29.80;41.20;;;;;;5029920;28;20472;-87
2022/09/04 12:00:50;;;;;;;2.33;2.13;;;29.70;41.00;;;;;;5065987;28;20463;-88
2022/09/04 12:03:43;;;;;;;2.07;1.87;;;29.50;41.30;;;;;;5067772;28;20752;-88
2022/09/04 12:06:26;;;;;;;2.20;2.00;;;29.50;41.60;;;;;;5033215;28;20482;-89
2022/09/04 12:09:10;;;;;;;1.90;1.80;;;29.30;42.20;;;;;;5030706;28;20503;-87
2022/09/04 12:12:10;;;;;;;2.23;2.03;;;29.20;42.90;;;;;;5067268;28;20436;-88
2022/09/04 12:14:51;;;;;;;2.30;2.10;;;29.10;43.30;;;;;;5068420;28;21230;-88
2022/09/04 12:18:09;;;;;;;2.77;1.90;;;29.10;43.50;;;;;;5069766;28;20468;-88
2022/09/04 12:21:14;;;;;;;1.83;1.73;;;29.00;43.30;;;;;;5018751;28;20449;-86
2022/09/04 12:24:13;;;;;;;2.30;2.10;;;28.80;44.00;;;;;;5069638;28;20440;-87
2022/09/04 12:27:15;;;;;;;2.07;1.97;;;28.90;44.20;;;;;;5014533;28;20471;-88
2022/09/04 12:30:04;;;;;;;2.70;2.50;;;29.00;43.70;;;;;;5052048;28;20464;-88
2022/09/04 12:33:03;;;;;;;2.13;1.93;;;29.10;43.90;;;;;;5051688;28;20456;-86
2022/09/04 12:35:53;;;;;;;2.90;2.00;;;29.20;43.90;;;;;;5067518;28;20944;-89
2022/09/04 12:38:54;;;;;;;2.33;2.13;;;29.40;44.30;;;;;;5050271;28;20452;-87
2022/09/04 12:41:29;;;;;;;3.43;1.90;;;29.50;43.10;;;;;;5048446;28;20442;-87
2022/09/04 12:44:07;;;;;;;1.70;1.60;;;29.60;42.10;;;;;;5069743;28;20458;-88
2022/09/04 12:46:55;;;;;;;2.40;1.60;;;29.90;41.80;;;;;;5042742;28;20571;-88
2022/09/04 12:49:41;;;;;;;1.60;1.50;;;30.20;41.20;;;;;;5068505;28;20461;-89
2022/09/04 12:52:20;;;;;;;1.83;1.70;;;30.40;40.10;;;;;;5059273;28;20454;-87
2022/09/04 12:55:00;;;;;;;2.87;1.80;;;30.50;39.70;;;;;;5041612;28;20454;-88
2022/09/04 12:57:37;;;;;;;3.63;2.10;;;30.70;40.40;;;;;;5036795;28;20580;-88
2022/09/04 13:00:09;;;;;;;2.53;1.60;;;30.70;39.00;;;;;;5050296;28;20509;-88
2022/09/04 13:02:51;;;;;;;1.43;1.33;;;30.40;39.60;;;;;;5049510;28;20510;-88
2022/09/04 13:05:43;;;;;;;1.63;1.53;;;30.50;40.00;;;;;;5067803;28;21022;-88
2022/09/04 13:08:18;;;;;;;2.57;1.90;;;30.50;39.80;;;;;;5024896;28;20707;-89
2022/09/04 13:10:56;;;;;;;2.33;2.13;;;30.40;39.20;;;;;;5059526;28;20453;-87
2022/09/04 13:13:38;;;;;;;1.83;1.73;;;30.50;38.70;;;;;;5052502;28;20459;-88
2022/09/04 13:16:12;;;;;;;1.60;1.50;;;30.40;39.20;;;;;;5070132;28;20441;-88
2022/09/04 13:18:50;;;;;;;1.77;1.67;;;30.50;39.20;;;;;;5068163;28;20447;-89
2022/09/04 13:21:26;;;;;;;2.03;1.93;;;30.50;38.70;;;;;;5069735;28;20575;-88
2022/09/04 13:24:06;;;;;;;1.87;1.70;;;30.50;39.10;;;;;;5049203;28;20468;-89
2022/09/04 13:26:50;;;;;;;1.57;1.47;;;30.50;38.90;;;;;;5049199;28;20976;-88
2022/09/04 13:29:26;;;;;;;1.93;1.80;;;30.50;38.50;;;;;;5067123;28;21145;-88
2022/09/04 13:32:15;;;;;;;1.60;1.27;;;30.40;38.70;;;;;;5051967;28;21266;-88
2022/09/04 13:34:56;;;;;;;2.00;1.90;;;30.40;39.50;;;;;;5052143;28;20451;-88
2022/09/04 13:37:28;;;;;;;1.90;1.80;;;30.40;38.20;;;;;;5070200;28;20467;-88
2022/09/04 13:40:13;;;;;;;1.63;1.53;;;30.20;38.90;;;;;;5052546;28;20970;-88
2022/09/04 13:43:07;;;;;;;1.97;1.77;;;30.00;39.50;;;;;;5032085;28;20456;-89
2022/09/04 13:45:40;;;;;;;2.40;1.90;;;29.90;40.00;;;;;;5052389;28;20471;-88
2022/09/04 13:48:12;;;;;;;1.90;1.80;;;30.00;40.70;;;;;;5069294;28;20609;-89
2022/09/04 13:50:43;;;;;;;2.87;2.20;;;30.10;40.00;;;;;;5070730;28;20828;-88
2022/09/04 13:53:16;;;;;;;2.00;1.80;;;30.20;39.90;;;;;;5056528;28;20823;-88
2022/09/04 13:55:48;;;;;;;2.00;1.80;;;30.20;39.80;;;;;;5069410;28;20467;-89
2022/09/04 13:58:18;;;;;;;2.40;2.20;;;30.30;39.30;;;;;;5052554;28;20448;-87
2022/09/04 14:00:49;;;;;;;3.10;1.90;;;30.20;39.60;;;;;;5070892;28;20944;-89
2022/09/04 14:03:28;;;;;;;2.60;1.90;;;30.30;39.80;;;;;;5070438;28;20453;-88
2022/09/04 14:05:56;;;;;;;2.23;1.70;;;30.30;38.80;;;;;;5053166;28;20443;-88
2022/09/04 14:08:24;;;;;;;2.43;1.93;;;30.20;38.30;;;;;;5069840;28;20784;-89
2022/09/04 14:11:14;;;;;;;1.70;1.53;;;30.10;39.10;;;;;;5051690;28;20460;-88
2022/09/04 14:14:02;;;;;;;2.17;1.97;;;30.10;39.00;;;;;;5039191;28;20519;-88
2022/09/04 14:16:35;;;;;;;2.33;1.50;;;30.10;38.40;;;;;;5050999;28;20476;-88
2022/09/04 14:19:30;;;;;;;1.53;1.43;;;30.10;38.40;;;;;;5048993;28;20948;-89